sensor_id;sensor_type;location;lat;lon;timestamp;P1;durP1;ratioP1;P2;durP2;ratioP2
6376;SDS011;3221;48.858;10.128;2024-01-15T00:01:00;41.90;;;21.37;;
6376;SDS011;3221;48.858;10.128;2024-01-15T00:03:30;47.17;;;22.77;;
6376;SDS011;3221;48.858;10.128;2024-01-15T00:05:56;44.13;;;21.87;;
6376;SDS011;3221;48.858;10.128;2024-01-15T00:08:23;45.57;;;21.57;;
6376;SDS011;3221;48.858;10.128;2024-01-15T00:10:50;41.33;;;20.40;;
6376;SDS011;3221;48.858;10.128;2024-01-15T00:13:17;42.90;;;21.23;;
6376;SDS011;3221;48.858;10.128;2024-01-15T00:15:45;44.87;;;22.60;;
6376;SDS011;3221;48.858;10.128;2024-01-15T00:18:12;43.73;;;21.70;;
6376;SDS011;3221;48.858;10.128;2024-01-15T00:20:39;43.57;;;21.53;;
6376;SDS011;3221;48.858;10.128;2024-01-15T00:23:06;42.53;;;21.13;;
6376;SDS011;3221;48.858;10.128;2024-01-15T00:25:33;45.57;;;22.73;;
6376;SDS011;3221;48.858;10.128;2024-01-15T00:28:00;44.30;;;21.20;;
6376;SDS011;3221;48.858;10.128;2024-01-15T00:30:27;44.83;;;21.50;;
6376;SDS011;3221;48.858;10.128;2024-01-15T00:32:54;45.47;;;21.17;;
6376;SDS011;3221;48.858;10.128;2024-01-15T00:35:21;38.73;;;20.30;;
6376;SDS011;3221;48.858;10.128;2024-01-15T00:37:48;46.33;;;21.50;;
6376;SDS011;3221;48.858;10.128;2024-01-15T00:40:14;46.63;;;21.97;;
6376;SDS011;3221;48.858;10.128;2024-01-15T00:42:41;44.87;;;21.17;;
6376;SDS011;3221;48.858;10.128;2024-01-15T00:45:09;45.67;;;22.17;;
6376;SDS011;3221;48.858;10.128;2024-01-15T00:47:37;40.90;;;20.47;;
6376;SDS011;3221;48.858;10.128;2024-01-15T00:50:04;42.63;;;20.67;;
6376;SDS011;3221;48.858;10.128;2024-01-15T00:52:31;44.17;;;21.10;;
6376;SDS011;3221;48.858;10.128;2024-01-15T00:54:58;42.77;;;20.80;;
6376;SDS011;3221;48.858;10.128;2024-01-15T00:57:25;40.27;;;20.83;;
6376;SDS011;3221;48.858;10.128;2024-01-15T00:59:52;42.63;;;21.10;;
6376;SDS011;3221;48.858;10.128;2024-01-15T01:02:19;42.70;;;20.00;;
6376;SDS011;3221;48.858;10.128;2024-01-15T01:04:46;43.67;;;21.53;;
6376;SDS011;3221;48.858;10.128;2024-01-15T01:07:13;44.67;;;21.97;;
6376;SDS011;3221;48.858;10.128;2024-01-15T01:09:40;40.10;;;20.10;;
6376;SDS011;3221;48.858;10.128;2024-01-15T01:12:07;43.20;;;21.13;;
6376;SDS011;3221;48.858;10.128;2024-01-15T01:14:34;45.33;;;21.03;;
6376;SDS011;3221;48.858;10.128;2024-01-15T01:17:00;44.37;;;22.07;;
6376;SDS011;3221;48.858;10.128;2024-01-15T01:19:27;42.23;;;20.93;;
6376;SDS011;3221;48.858;10.128;2024-01-15T01:21:54;41.97;;;21.07;;
6376;SDS011;3221;48.858;10.128;2024-01-15T01:24:21;51.43;;;23.60;;
6376;SDS011;3221;48.858;10.128;2024-01-15T01:26:48;69.40;;;31.07;;
6376;SDS011;3221;48.858;10.128;2024-01-15T01:29:15;54.73;;;25.37;;
6376;SDS011;3221;48.858;10.128;2024-01-15T01:31:45;43.07;;;21.70;;
6376;SDS011;3221;48.858;10.128;2024-01-15T01:34:15;49.07;;;21.97;;
6376;SDS011;3221;48.858;10.128;2024-01-15T01:36:43;46.23;;;23.13;;
6376;SDS011;3221;48.858;10.128;2024-01-15T01:39:10;47.00;;;21.93;;
6376;SDS011;3221;48.858;10.128;2024-01-15T01:41:38;43.17;;;21.27;;
6376;SDS011;3221;48.858;10.128;2024-01-15T01:44:06;44.93;;;21.37;;
6376;SDS011;3221;48.858;10.128;2024-01-15T01:46:33;48.20;;;23.63;;
6376;SDS011;3221;48.858;10.128;2024-01-15T01:49:05;44.47;;;22.67;;
6376;SDS011;3221;48.858;10.128;2024-01-15T01:51:34;45.40;;;22.43;;
6376;SDS011;3221;48.858;10.128;2024-01-15T01:54:02;111.60;;;48.30;;
6376;SDS011;3221;48.858;10.128;2024-01-15T01:56:30;59.87;;;28.90;;
6376;SDS011;3221;48.858;10.128;2024-01-15T01:58:57;46.90;;;23.50;;
6376;SDS011;3221;48.858;10.128;2024-01-15T02:01:27;49.33;;;25.43;;
6376;SDS011;3221;48.858;10.128;2024-01-15T02:03:55;46.27;;;24.83;;
6376;SDS011;3221;48.858;10.128;2024-01-15T02:06:23;46.00;;;25.83;;
6376;SDS011;3221;48.858;10.128;2024-01-15T02:08:51;52.20;;;25.70;;
6376;SDS011;3221;48.858;10.128;2024-01-15T02:11:18;87.43;;;41.23;;
6376;SDS011;3221;48.858;10.128;2024-01-15T02:13:45;61.67;;;32.30;;
6376;SDS011;3221;48.858;10.128;2024-01-15T02:16:12;46.20;;;23.10;;
6376;SDS011;3221;48.858;10.128;2024-01-15T02:18:42;41.33;;;20.90;;
6376;SDS011;3221;48.858;10.128;2024-01-15T02:21:10;45.20;;;22.00;;
6376;SDS011;3221;48.858;10.128;2024-01-15T02:23:38;42.90;;;21.83;;
6376;SDS011;3221;48.858;10.128;2024-01-15T02:26:05;41.37;;;21.87;;
6376;SDS011;3221;48.858;10.128;2024-01-15T02:28:33;42.47;;;22.00;;
6376;SDS011;3221;48.858;10.128;2024-01-15T02:31:00;40.80;;;20.97;;
6376;SDS011;3221;48.858;10.128;2024-01-15T02:33:27;39.70;;;20.97;;
6376;SDS011;3221;48.858;10.128;2024-01-15T02:35:54;36.63;;;18.27;;
6376;SDS011;3221;48.858;10.128;2024-01-15T02:38:21;34.83;;;17.03;;
6376;SDS011;3221;48.858;10.128;2024-01-15T02:40:49;42.87;;;20.27;;
6376;SDS011;3221;48.858;10.128;2024-01-15T02:43:17;46.57;;;22.43;;
6376;SDS011;3221;48.858;10.128;2024-01-15T02:45:45;45.40;;;20.77;;
6376;SDS011;3221;48.858;10.128;2024-01-15T02:48:13;44.17;;;21.77;;
6376;SDS011;3221;48.858;10.128;2024-01-15T02:50:40;46.70;;;21.40;;
6376;SDS011;3221;48.858;10.128;2024-01-15T02:53:07;41.77;;;19.77;;
6376;SDS011;3221;48.858;10.128;2024-01-15T02:55:34;36.20;;;18.53;;
6376;SDS011;3221;48.858;10.128;2024-01-15T02:58:01;64.67;;;29.83;;
6376;SDS011;3221;48.858;10.128;2024-01-15T03:00:29;39.53;;;19.03;;
6376;SDS011;3221;48.858;10.128;2024-01-15T03:02:56;36.57;;;18.17;;
6376;SDS011;3221;48.858;10.128;2024-01-15T03:05:23;32.43;;;16.40;;
6376;SDS011;3221;48.858;10.128;2024-01-15T03:07:50;28.37;;;14.97;;
6376;SDS011;3221;48.858;10.128;2024-01-15T03:10:17;30.47;;;14.87;;
6376;SDS011;3221;48.858;10.128;2024-01-15T03:12:44;31.60;;;15.93;;
6376;SDS011;3221;48.858;10.128;2024-01-15T03:15:11;38.40;;;17.63;;
6376;SDS011;3221;48.858;10.128;2024-01-15T03:17:38;37.07;;;17.73;;
6376;SDS011;3221;48.858;10.128;2024-01-15T03:20:05;50.10;;;21.70;;
6376;SDS011;3221;48.858;10.128;2024-01-15T03:22:32;37.70;;;18.03;;
6376;SDS011;3221;48.858;10.128;2024-01-15T03:24:59;36.80;;;16.03;;
6376;SDS011;3221;48.858;10.128;2024-01-15T03:27:26;34.83;;;17.33;;
6376;SDS011;3221;48.858;10.128;2024-01-15T03:29:53;37.50;;;16.73;;
6376;SDS011;3221;48.858;10.128;2024-01-15T03:32:20;35.00;;;15.73;;
6376;SDS011;3221;48.858;10.128;2024-01-15T03:34:47;52.10;;;19.73;;
6376;SDS011;3221;48.858;10.128;2024-01-15T03:37:14;44.13;;;18.93;;
6376;SDS011;3221;48.858;10.128;2024-01-15T03:39:41;39.23;;;16.80;;
6376;SDS011;3221;48.858;10.128;2024-01-15T03:42:08;38.77;;;16.90;;
6376;SDS011;3221;48.858;10.128;2024-01-15T03:44:35;37.07;;;16.27;;
6376;SDS011;3221;48.858;10.128;2024-01-15T03:47:02;36.77;;;15.63;;
6376;SDS011;3221;48.858;10.128;2024-01-15T03:49:29;32.07;;;15.00;;
6376;SDS011;3221;48.858;10.128;2024-01-15T03:51:56;27.53;;;14.27;;
6376;SDS011;3221;48.858;10.128;2024-01-15T03:54:23;27.03;;;13.73;;
6376;SDS011;3221;48.858;10.128;2024-01-15T03:56:50;29.13;;;14.17;;
6376;SDS011;3221;48.858;10.128;2024-01-15T03:59:17;25.57;;;13.40;;
6376;SDS011;3221;48.858;10.128;2024-01-15T04:01:50;26.63;;;13.67;;
6376;SDS011;3221;48.858;10.128;2024-01-15T04:04:17;23.30;;;12.83;;
6376;SDS011;3221;48.858;10.128;2024-01-15T04:06:45;24.37;;;12.70;;
6376;SDS011;3221;48.858;10.128;2024-01-15T04:09:13;25.60;;;12.37;;
6376;SDS011;3221;48.858;10.128;2024-01-15T04:11:40;21.87;;;11.60;;
6376;SDS011;3221;48.858;10.128;2024-01-15T04:14:07;23.90;;;11.87;;
6376;SDS011;3221;48.858;10.128;2024-01-15T04:16:34;19.60;;;11.77;;
6376;SDS011;3221;48.858;10.128;2024-01-15T04:19:03;19.57;;;11.37;;
6376;SDS011;3221;48.858;10.128;2024-01-15T04:21:30;19.17;;;11.37;;
6376;SDS011;3221;48.858;10.128;2024-01-15T04:23:57;21.33;;;11.57;;
6376;SDS011;3221;48.858;10.128;2024-01-15T04:26:24;20.57;;;11.50;;
6376;SDS011;3221;48.858;10.128;2024-01-15T04:28:51;19.80;;;10.80;;
6376;SDS011;3221;48.858;10.128;2024-01-15T04:31:24;21.80;;;11.17;;
6376;SDS011;3221;48.858;10.128;2024-01-15T04:33:53;19.50;;;10.87;;
6376;SDS011;3221;48.858;10.128;2024-01-15T04:36:20;21.67;;;11.70;;
6376;SDS011;3221;48.858;10.128;2024-01-15T04:38:47;22.33;;;11.60;;
6376;SDS011;3221;48.858;10.128;2024-01-15T04:41:15;19.90;;;10.40;;
6376;SDS011;3221;48.858;10.128;2024-01-15T04:43:43;20.90;;;11.03;;
6376;SDS011;3221;48.858;10.128;2024-01-15T04:46:10;17.97;;;10.00;;
6376;SDS011;3221;48.858;10.128;2024-01-15T04:48:37;19.80;;;10.90;;
6376;SDS011;3221;48.858;10.128;2024-01-15T04:51:05;17.93;;;10.70;;
6376;SDS011;3221;48.858;10.128;2024-01-15T04:53:34;20.37;;;11.07;;
6376;SDS011;3221;48.858;10.128;2024-01-15T04:56:01;18.97;;;10.30;;
6376;SDS011;3221;48.858;10.128;2024-01-15T04:58:28;21.60;;;11.03;;
6376;SDS011;3221;48.858;10.128;2024-01-15T05:00:55;20.00;;;11.10;;
6376;SDS011;3221;48.858;10.128;2024-01-15T05:03:22;21.63;;;11.20;;
6376;SDS011;3221;48.858;10.128;2024-01-15T05:05:49;17.43;;;10.33;;
6376;SDS011;3221;48.858;10.128;2024-01-15T05:08:16;18.63;;;10.57;;
6376;SDS011;3221;48.858;10.128;2024-01-15T05:10:43;20.50;;;10.70;;
6376;SDS011;3221;48.858;10.128;2024-01-15T05:13:10;20.03;;;10.43;;
6376;SDS011;3221;48.858;10.128;2024-01-15T05:15:37;20.23;;;10.13;;
6376;SDS011;3221;48.858;10.128;2024-01-15T05:18:04;19.87;;;10.50;;
6376;SDS011;3221;48.858;10.128;2024-01-15T05:20:32;21.97;;;10.50;;
6376;SDS011;3221;48.858;10.128;2024-01-15T05:22:59;19.43;;;10.50;;
6376;SDS011;3221;48.858;10.128;2024-01-15T05:25:25;16.77;;;9.67;;
6376;SDS011;3221;48.858;10.128;2024-01-15T05:27:52;20.30;;;10.63;;
6376;SDS011;3221;48.858;10.128;2024-01-15T05:30:19;21.27;;;11.07;;
6376;SDS011;3221;48.858;10.128;2024-01-15T05:32:46;17.87;;;10.07;;
6376;SDS011;3221;48.858;10.128;2024-01-15T05:35:13;20.13;;;10.87;;
6376;SDS011;3221;48.858;10.128;2024-01-15T05:37:43;19.60;;;10.50;;
6376;SDS011;3221;48.858;10.128;2024-01-15T05:40:11;20.33;;;10.17;;
6376;SDS011;3221;48.858;10.128;2024-01-15T05:42:39;18.33;;;10.33;;
6376;SDS011;3221;48.858;10.128;2024-01-15T05:45:06;22.03;;;11.53;;
6376;SDS011;3221;48.858;10.128;2024-01-15T05:47:34;21.27;;;10.77;;
6376;SDS011;3221;48.858;10.128;2024-01-15T05:50:01;18.03;;;9.90;;
6376;SDS011;3221;48.858;10.128;2024-01-15T05:52:28;19.90;;;10.40;;
6376;SDS011;3221;48.858;10.128;2024-01-15T05:54:55;19.80;;;10.67;;
6376;SDS011;3221;48.858;10.128;2024-01-15T05:57:23;19.83;;;10.90;;
6376;SDS011;3221;48.858;10.128;2024-01-15T05:59:50;22.77;;;11.37;;
6376;SDS011;3221;48.858;10.128;2024-01-15T06:02:16;22.70;;;11.53;;
6376;SDS011;3221;48.858;10.128;2024-01-15T06:04:43;21.20;;;11.13;;
6376;SDS011;3221;48.858;10.128;2024-01-15T06:07:10;34.23;;;15.67;;
6376;SDS011;3221;48.858;10.128;2024-01-15T06:09:37;73.20;;;29.23;;
6376;SDS011;3221;48.858;10.128;2024-01-15T06:12:05;30.67;;;15.77;;
6376;SDS011;3221;48.858;10.128;2024-01-15T06:14:33;33.23;;;16.70;;
6376;SDS011;3221;48.858;10.128;2024-01-15T06:17:00;33.07;;;16.20;;
6376;SDS011;3221;48.858;10.128;2024-01-15T06:19:27;38.33;;;16.83;;
6376;SDS011;3221;48.858;10.128;2024-01-15T06:21:54;36.30;;;16.90;;
6376;SDS011;3221;48.858;10.128;2024-01-15T06:24:21;39.47;;;20.37;;
6376;SDS011;3221;48.858;10.128;2024-01-15T06:26:48;32.87;;;16.63;;
6376;SDS011;3221;48.858;10.128;2024-01-15T06:29:15;31.10;;;15.30;;
6376;SDS011;3221;48.858;10.128;2024-01-15T06:31:42;26.77;;;14.50;;
6376;SDS011;3221;48.858;10.128;2024-01-15T06:34:08;26.07;;;13.20;;
6376;SDS011;3221;48.858;10.128;2024-01-15T06:36:36;23.90;;;13.43;;
6376;SDS011;3221;48.858;10.128;2024-01-15T06:39:03;27.90;;;16.00;;
6376;SDS011;3221;48.858;10.128;2024-01-15T06:41:30;25.47;;;14.53;;
6376;SDS011;3221;48.858;10.128;2024-01-15T06:43:57;25.60;;;13.73;;
6376;SDS011;3221;48.858;10.128;2024-01-15T06:46:24;23.83;;;13.63;;
6376;SDS011;3221;48.858;10.128;2024-01-15T06:48:51;23.40;;;12.40;;
6376;SDS011;3221;48.858;10.128;2024-01-15T06:51:18;24.40;;;13.73;;
6376;SDS011;3221;48.858;10.128;2024-01-15T06:56:34;25.77;;;14.43;;
6376;SDS011;3221;48.858;10.128;2024-01-15T06:59:01;23.80;;;13.50;;
6376;SDS011;3221;48.858;10.128;2024-01-15T07:01:27;22.97;;;13.33;;
6376;SDS011;3221;48.858;10.128;2024-01-15T07:03:54;23.37;;;12.97;;
6376;SDS011;3221;48.858;10.128;2024-01-15T07:06:22;23.97;;;13.07;;
6376;SDS011;3221;48.858;10.128;2024-01-15T07:08:48;28.33;;;15.27;;
6376;SDS011;3221;48.858;10.128;2024-01-15T07:11:16;24.70;;;14.23;;
6376;SDS011;3221;48.858;10.128;2024-01-15T07:13:43;24.03;;;12.67;;
6376;SDS011;3221;48.858;10.128;2024-01-15T07:16:10;23.70;;;13.03;;
6376;SDS011;3221;48.858;10.128;2024-01-15T07:18:37;24.53;;;13.60;;
6376;SDS011;3221;48.858;10.128;2024-01-15T07:21:04;25.40;;;13.43;;
6376;SDS011;3221;48.858;10.128;2024-01-15T07:23:31;25.20;;;14.00;;
6376;SDS011;3221;48.858;10.128;2024-01-15T07:25:58;24.40;;;13.43;;
6376;SDS011;3221;48.858;10.128;2024-01-15T07:28:25;22.00;;;13.10;;
6376;SDS011;3221;48.858;10.128;2024-01-15T07:30:52;23.93;;;13.63;;
6376;SDS011;3221;48.858;10.128;2024-01-15T07:33:19;23.20;;;13.40;;
6376;SDS011;3221;48.858;10.128;2024-01-15T07:35:46;24.27;;;13.43;;
6376;SDS011;3221;48.858;10.128;2024-01-15T07:38:13;24.83;;;13.40;;
6376;SDS011;3221;48.858;10.128;2024-01-15T07:40:40;23.43;;;13.20;;
6376;SDS011;3221;48.858;10.128;2024-01-15T07:43:07;26.33;;;14.43;;
6376;SDS011;3221;48.858;10.128;2024-01-15T07:45:34;30.97;;;17.60;;
6376;SDS011;3221;48.858;10.128;2024-01-15T07:48:01;25.57;;;14.67;;
6376;SDS011;3221;48.858;10.128;2024-01-15T07:50:28;32.77;;;19.70;;
6376;SDS011;3221;48.858;10.128;2024-01-15T07:52:55;23.70;;;14.73;;
6376;SDS011;3221;48.858;10.128;2024-01-15T07:55:22;26.00;;;14.20;;
6376;SDS011;3221;48.858;10.128;2024-01-15T07:57:48;24.47;;;14.17;;
6376;SDS011;3221;48.858;10.128;2024-01-15T08:00:27;21.63;;;12.87;;
6376;SDS011;3221;48.858;10.128;2024-01-15T08:02:54;21.10;;;13.10;;
6376;SDS011;3221;48.858;10.128;2024-01-15T08:05:21;20.63;;;12.13;;
6376;SDS011;3221;48.858;10.128;2024-01-15T08:07:48;21.03;;;12.43;;
6376;SDS011;3221;48.858;10.128;2024-01-15T08:10:15;20.73;;;12.40;;
6376;SDS011;3221;48.858;10.128;2024-01-15T08:12:42;22.67;;;13.27;;
6376;SDS011;3221;48.858;10.128;2024-01-15T08:15:09;22.07;;;12.40;;
6376;SDS011;3221;48.858;10.128;2024-01-15T08:17:36;22.60;;;13.30;;
6376;SDS011;3221;48.858;10.128;2024-01-15T08:20:03;23.43;;;14.47;;
6376;SDS011;3221;48.858;10.128;2024-01-15T08:22:31;23.83;;;14.67;;
6376;SDS011;3221;48.858;10.128;2024-01-15T08:24:58;24.70;;;14.47;;
6376;SDS011;3221;48.858;10.128;2024-01-15T08:27:25;24.00;;;15.17;;
6376;SDS011;3221;48.858;10.128;2024-01-15T08:29:52;24.07;;;13.63;;
6376;SDS011;3221;48.858;10.128;2024-01-15T08:32:19;23.27;;;14.20;;
6376;SDS011;3221;48.858;10.128;2024-01-15T08:34:46;23.63;;;13.83;;
6376;SDS011;3221;48.858;10.128;2024-01-15T08:37:15;21.50;;;12.80;;
6376;SDS011;3221;48.858;10.128;2024-01-15T08:39:42;22.47;;;13.23;;
6376;SDS011;3221;48.858;10.128;2024-01-15T08:42:09;21.00;;;12.50;;
6376;SDS011;3221;48.858;10.128;2024-01-15T08:44:37;20.87;;;12.50;;
6376;SDS011;3221;48.858;10.128;2024-01-15T08:47:06;20.00;;;12.60;;
6376;SDS011;3221;48.858;10.128;2024-01-15T08:49:33;21.10;;;12.53;;
6376;SDS011;3221;48.858;10.128;2024-01-15T08:52:00;23.70;;;13.63;;
6376;SDS011;3221;48.858;10.128;2024-01-15T08:54:27;19.97;;;12.13;;
6376;SDS011;3221;48.858;10.128;2024-01-15T08:56:54;20.43;;;12.00;;
6376;SDS011;3221;48.858;10.128;2024-01-15T08:59:21;21.33;;;12.40;;
6376;SDS011;3221;48.858;10.128;2024-01-15T09:01:52;20.40;;;12.70;;
6376;SDS011;3221;48.858;10.128;2024-01-15T09:04:19;21.03;;;12.80;;
6376;SDS011;3221;48.858;10.128;2024-01-15T09:06:46;20.87;;;12.57;;
6376;SDS011;3221;48.858;10.128;2024-01-15T09:09:13;22.17;;;13.03;;
6376;SDS011;3221;48.858;10.128;2024-01-15T09:11:42;22.63;;;13.30;;
6376;SDS011;3221;48.858;10.128;2024-01-15T09:14:09;22.20;;;13.20;;
6376;SDS011;3221;48.858;10.128;2024-01-15T09:16:36;21.03;;;12.67;;
6376;SDS011;3221;48.858;10.128;2024-01-15T09:19:03;20.90;;;12.73;;
6376;SDS011;3221;48.858;10.128;2024-01-15T09:21:30;20.00;;;12.80;;
6376;SDS011;3221;48.858;10.128;2024-01-15T09:23:57;25.40;;;11.97;;
6376;SDS011;3221;48.858;10.128;2024-01-15T09:26:24;21.60;;;12.47;;
6376;SDS011;3221;48.858;10.128;2024-01-15T09:28:51;17.70;;;11.43;;
6376;SDS011;3221;48.858;10.128;2024-01-15T09:31:18;17.97;;;11.33;;
6376;SDS011;3221;48.858;10.128;2024-01-15T09:33:46;18.47;;;11.10;;
6376;SDS011;3221;48.858;10.128;2024-01-15T09:36:14;17.93;;;11.07;;
6376;SDS011;3221;48.858;10.128;2024-01-15T09:38:40;14.73;;;10.17;;
6376;SDS011;3221;48.858;10.128;2024-01-15T09:41:08;18.03;;;11.43;;
6376;SDS011;3221;48.858;10.128;2024-01-15T09:43:36;18.83;;;11.53;;
6376;SDS011;3221;48.858;10.128;2024-01-15T09:46:04;18.70;;;10.67;;
6376;SDS011;3221;48.858;10.128;2024-01-15T09:48:31;18.17;;;11.70;;
6376;SDS011;3221;48.858;10.128;2024-01-15T09:51:01;18.20;;;11.33;;
6376;SDS011;3221;48.858;10.128;2024-01-15T09:53:28;15.90;;;10.27;;
6376;SDS011;3221;48.858;10.128;2024-01-15T09:55:56;18.80;;;11.50;;
6376;SDS011;3221;48.858;10.128;2024-01-15T09:58:24;17.20;;;10.10;;
6376;SDS011;3221;48.858;10.128;2024-01-15T10:00:51;18.13;;;10.57;;
6376;SDS011;3221;48.858;10.128;2024-01-15T10:03:19;17.77;;;10.77;;
6376;SDS011;3221;48.858;10.128;2024-01-15T10:05:47;18.70;;;10.83;;
6376;SDS011;3221;48.858;10.128;2024-01-15T10:08:15;16.60;;;10.60;;
6376;SDS011;3221;48.858;10.128;2024-01-15T10:10:42;15.63;;;9.30;;
6376;SDS011;3221;48.858;10.128;2024-01-15T10:13:09;18.03;;;10.60;;
6376;SDS011;3221;48.858;10.128;2024-01-15T10:15:38;15.70;;;9.80;;
6376;SDS011;3221;48.858;10.128;2024-01-15T10:18:05;17.00;;;10.13;;
6376;SDS011;3221;48.858;10.128;2024-01-15T10:20:32;15.00;;;9.97;;
6376;SDS011;3221;48.858;10.128;2024-01-15T10:22:59;22.83;;;12.27;;
6376;SDS011;3221;48.858;10.128;2024-01-15T10:25:26;19.37;;;10.33;;
6376;SDS011;3221;48.858;10.128;2024-01-15T10:28:03;19.37;;;11.90;;
6376;SDS011;3221;48.858;10.128;2024-01-15T10:30:33;18.90;;;11.07;;
6376;SDS011;3221;48.858;10.128;2024-01-15T10:33:01;18.83;;;10.60;;
6376;SDS011;3221;48.858;10.128;2024-01-15T10:35:33;15.40;;;9.87;;
6376;SDS011;3221;48.858;10.128;2024-01-15T10:38:01;15.87;;;10.30;;
6376;SDS011;3221;48.858;10.128;2024-01-15T10:40:29;15.77;;;10.10;;
6376;SDS011;3221;48.858;10.128;2024-01-15T10:42:56;15.43;;;10.13;;
6376;SDS011;3221;48.858;10.128;2024-01-15T10:45:23;13.53;;;8.97;;
6376;SDS011;3221;48.858;10.128;2024-01-15T10:47:51;14.00;;;8.70;;
6376;SDS011;3221;48.858;10.128;2024-01-15T10:50:19;14.83;;;9.13;;
6376;SDS011;3221;48.858;10.128;2024-01-15T10:52:46;14.73;;;8.97;;
6376;SDS011;3221;48.858;10.128;2024-01-15T10:55:14;13.63;;;8.77;;
6376;SDS011;3221;48.858;10.128;2024-01-15T10:57:45;18.67;;;10.17;;
6376;SDS011;3221;48.858;10.128;2024-01-15T11:00:16;14.07;;;9.00;;
6376;SDS011;3221;48.858;10.128;2024-01-15T11:02:44;12.50;;;9.00;;
6376;SDS011;3221;48.858;10.128;2024-01-15T11:05:11;13.13;;;8.50;;
6376;SDS011;3221;48.858;10.128;2024-01-15T11:07:39;12.10;;;8.17;;
6376;SDS011;3221;48.858;10.128;2024-01-15T11:10:07;13.70;;;8.53;;
6376;SDS011;3221;48.858;10.128;2024-01-15T11:12:54;13.33;;;8.23;;
6376;SDS011;3221;48.858;10.128;2024-01-15T11:15:21;13.13;;;8.23;;
6376;SDS011;3221;48.858;10.128;2024-01-15T11:17:58;16.17;;;9.17;;
6376;SDS011;3221;48.858;10.128;2024-01-15T11:20:32;13.20;;;7.97;;
6376;SDS011;3221;48.858;10.128;2024-01-15T11:22:59;13.63;;;8.27;;
6376;SDS011;3221;48.858;10.128;2024-01-15T11:25:33;13.93;;;8.77;;
6376;SDS011;3221;48.858;10.128;2024-01-15T11:28:03;14.20;;;7.87;;
6376;SDS011;3221;48.858;10.128;2024-01-15T11:30:30;15.60;;;8.70;;
6376;SDS011;3221;48.858;10.128;2024-01-15T11:32:57;13.20;;;8.23;;
6376;SDS011;3221;48.858;10.128;2024-01-15T11:35:24;12.23;;;7.90;;
6376;SDS011;3221;48.858;10.128;2024-01-15T11:38:26;13.07;;;8.33;;
6376;SDS011;3221;48.858;10.128;2024-01-15T11:40:54;13.03;;;8.23;;
6376;SDS011;3221;48.858;10.128;2024-01-15T11:43:21;12.07;;;7.50;;
6376;SDS011;3221;48.858;10.128;2024-01-15T11:45:50;13.03;;;8.07;;
6376;SDS011;3221;48.858;10.128;2024-01-15T11:48:20;11.90;;;7.63;;
6376;SDS011;3221;48.858;10.128;2024-01-15T11:50:50;12.30;;;7.70;;
6376;SDS011;3221;48.858;10.128;2024-01-15T11:53:26;10.70;;;7.03;;
6376;SDS011;3221;48.858;10.128;2024-01-15T11:55:58;10.23;;;7.10;;
6376;SDS011;3221;48.858;10.128;2024-01-15T11:58:27;11.77;;;7.53;;
6376;SDS011;3221;48.858;10.128;2024-01-15T12:00:55;10.77;;;7.20;;
6376;SDS011;3221;48.858;10.128;2024-01-15T12:03:22;10.90;;;7.60;;
6376;SDS011;3221;48.858;10.128;2024-01-15T12:05:53;11.40;;;7.23;;
6376;SDS011;3221;48.858;10.128;2024-01-15T12:08:21;10.00;;;7.50;;
6376;SDS011;3221;48.858;10.128;2024-01-15T12:10:49;10.37;;;7.40;;
6376;SDS011;3221;48.858;10.128;2024-01-15T12:13:16;14.67;;;7.57;;
6376;SDS011;3221;48.858;10.128;2024-01-15T12:15:46;10.80;;;7.17;;
6376;SDS011;3221;48.858;10.128;2024-01-15T12:18:15;10.73;;;7.90;;
6376;SDS011;3221;48.858;10.128;2024-01-15T12:20:44;14.10;;;7.60;;
6376;SDS011;3221;48.858;10.128;2024-01-15T12:23:15;13.77;;;8.33;;
6376;SDS011;3221;48.858;10.128;2024-01-15T12:25:44;11.63;;;8.00;;
6376;SDS011;3221;48.858;10.128;2024-01-15T12:28:11;12.80;;;8.57;;
6376;SDS011;3221;48.858;10.128;2024-01-15T12:30:38;12.63;;;8.17;;
6376;SDS011;3221;48.858;10.128;2024-01-15T12:33:06;11.70;;;7.43;;
6376;SDS011;3221;48.858;10.128;2024-01-15T12:35:35;10.67;;;6.97;;
6376;SDS011;3221;48.858;10.128;2024-01-15T12:38:03;12.67;;;8.20;;
6376;SDS011;3221;48.858;10.128;2024-01-15T12:40:31;13.00;;;7.90;;
6376;SDS011;3221;48.858;10.128;2024-01-15T12:43:01;11.03;;;6.93;;
6376;SDS011;3221;48.858;10.128;2024-01-15T12:45:29;11.53;;;8.07;;
6376;SDS011;3221;48.858;10.128;2024-01-15T12:47:56;11.70;;;7.83;;
6376;SDS011;3221;48.858;10.128;2024-01-15T12:50:24;13.17;;;8.30;;
6376;SDS011;3221;48.858;10.128;2024-01-15T12:52:52;14.83;;;9.13;;
6376;SDS011;3221;48.858;10.128;2024-01-15T12:55:19;12.90;;;7.40;;
6376;SDS011;3221;48.858;10.128;2024-01-15T12:57:46;12.37;;;7.60;;
6376;SDS011;3221;48.858;10.128;2024-01-15T13:00:13;11.27;;;7.70;;
6376;SDS011;3221;48.858;10.128;2024-01-15T13:02:44;12.47;;;7.97;;
6376;SDS011;3221;48.858;10.128;2024-01-15T13:05:11;11.73;;;7.87;;
6376;SDS011;3221;48.858;10.128;2024-01-15T13:07:41;13.57;;;7.90;;
6376;SDS011;3221;48.858;10.128;2024-01-15T13:10:09;11.77;;;7.90;;
6376;SDS011;3221;48.858;10.128;2024-01-15T13:12:37;14.50;;;8.57;;
6376;SDS011;3221;48.858;10.128;2024-01-15T13:15:05;11.17;;;7.77;;
6376;SDS011;3221;48.858;10.128;2024-01-15T13:17:32;11.30;;;7.63;;
6376;SDS011;3221;48.858;10.128;2024-01-15T13:19:59;13.37;;;8.67;;
6376;SDS011;3221;48.858;10.128;2024-01-15T13:22:27;13.60;;;8.80;;
6376;SDS011;3221;48.858;10.128;2024-01-15T13:24:58;12.37;;;8.90;;
6376;SDS011;3221;48.858;10.128;2024-01-15T13:27:26;14.50;;;8.17;;
6376;SDS011;3221;48.858;10.128;2024-01-15T13:29:54;11.40;;;8.00;;
6376;SDS011;3221;48.858;10.128;2024-01-15T13:32:23;12.63;;;7.83;;
6376;SDS011;3221;48.858;10.128;2024-01-15T13:34:57;11.07;;;7.63;;
6376;SDS011;3221;48.858;10.128;2024-01-15T13:37:24;11.40;;;7.30;;
6376;SDS011;3221;48.858;10.128;2024-01-15T13:39:51;9.37;;;7.07;;
6376;SDS011;3221;48.858;10.128;2024-01-15T13:42:19;10.93;;;7.60;;
6376;SDS011;3221;48.858;10.128;2024-01-15T13:44:48;12.93;;;7.60;;
6376;SDS011;3221;48.858;10.128;2024-01-15T13:47:15;9.37;;;6.93;;
6376;SDS011;3221;48.858;10.128;2024-01-15T13:49:42;9.70;;;7.00;;
6376;SDS011;3221;48.858;10.128;2024-01-15T13:52:09;10.57;;;7.20;;
6376;SDS011;3221;48.858;10.128;2024-01-15T13:54:36;19.00;;;10.57;;
6376;SDS011;3221;48.858;10.128;2024-01-15T13:57:15;18.80;;;9.80;;
6376;SDS011;3221;48.858;10.128;2024-01-15T13:59:43;14.40;;;9.43;;
6376;SDS011;3221;48.858;10.128;2024-01-15T14:02:09;14.57;;;9.70;;
6376;SDS011;3221;48.858;10.128;2024-01-15T14:04:37;21.00;;;11.87;;
6376;SDS011;3221;48.858;10.128;2024-01-15T14:07:05;25.87;;;13.47;;
6376;SDS011;3221;48.858;10.128;2024-01-15T14:09:32;27.37;;;14.63;;
6376;SDS011;3221;48.858;10.128;2024-01-15T14:11:59;32.63;;;16.40;;
6376;SDS011;3221;48.858;10.128;2024-01-15T14:14:26;41.03;;;20.07;;
6376;SDS011;3221;48.858;10.128;2024-01-15T14:16:53;27.67;;;15.13;;
6376;SDS011;3221;48.858;10.128;2024-01-15T14:19:20;28.00;;;15.50;;
6376;SDS011;3221;48.858;10.128;2024-01-15T14:21:48;22.67;;;13.37;;
6376;SDS011;3221;48.858;10.128;2024-01-15T14:24:15;22.20;;;13.27;;
6376;SDS011;3221;48.858;10.128;2024-01-15T14:26:43;17.43;;;10.50;;
6376;SDS011;3221;48.858;10.128;2024-01-15T14:29:10;13.20;;;8.20;;
6376;SDS011;3221;48.858;10.128;2024-01-15T14:31:37;13.17;;;8.27;;
6376;SDS011;3221;48.858;10.128;2024-01-15T14:34:04;8.70;;;6.53;;
6376;SDS011;3221;48.858;10.128;2024-01-15T14:36:31;9.73;;;6.87;;
6376;SDS011;3221;48.858;10.128;2024-01-15T14:38:58;8.10;;;6.07;;
6376;SDS011;3221;48.858;10.128;2024-01-15T14:41:25;8.03;;;6.20;;
6376;SDS011;3221;48.858;10.128;2024-01-15T14:43:52;8.67;;;6.83;;